• Join FlightAware (Why Join?)
  • Login
  • US Flag 
07:01PM EST


 

Airport Tracker/Info


-or-


 

Live Flight TrackerFlight Track Log ✈ N508QS ✈ 14-Aug-2013 ✈ KPHL - LIMC / MXP

Flight Track Log - Related Links

Times and Time Zones

All times are in EDT time to prevent confusion due to time zone crossing. See the N508QS flight status page for this flight to view local times or setup timezone preferences in your user account.

Time Position Orientation Groundspeed Altitude Reporting Facility
EDT Latitude Longitude Course Direction KTS MPH feet Rate Location/Type
07:46AM 39.8667 -75.2667 218° Southwest 181 208 800  Level Philadelphia TRACON
07:47AM 39.8167 -75.3167 218° Southwest 226 260 3,600 3,120 Climbing Philadelphia TRACON
07:48AM 39.7500 -75.3167 180° South 288 331 7,100 2,940 Climbing Philadelphia TRACON
07:49AM 39.7333 -75.2000 100° East 324 373 9,800 2,100 Climbing Philadelphia TRACON
07:50AM 39.7500 -75.1000 78° East 345 397 11,300 840 Climbing Philadelphia TRACON
07:52AM 39.7708 -74.8817 83° East 431 496 12,000 840 Climbing New York Center
07:53AM 39.7933 -74.7153 80° East 426 490 13,600 1,680 Climbing New York Center
07:54AM 39.8042 -74.5728 84° East 431 496 15,400 2,220 Climbing New York Center
07:55AM 39.8175 -74.3039 86° East 440 506 19,400 2,520 Climbing Boston Center
07:56AM 39.8222 -74.1392 88° East 450 518 21,900 1,800 Climbing Boston Center
07:57AM 39.8953 -73.9897 57° Northeast 453 521 23,000 900 Climbing Boston Center
07:58AM 39.9869 -73.8400 51° Northeast 483 556 23,700 1,320 Climbing Boston Center
07:59AM 40.0803 -73.6928 50° Northeast 508 585 25,700 1,740 Climbing Boston Center
08:00AM 40.1797 -73.5481 48° Northeast 526 605 27,200 1,500 Climbing Boston Center
08:01AM 40.2792 -73.3947 50° Northeast 537 618 28,700 1,440 Climbing Boston Center
08:02AM 40.3825 -73.2411 49° Northeast 550 633 30,200 1,440 Climbing Boston Center
08:03AM 40.4897 -73.0814 49° Northeast 563 648 31,700 1,440 Climbing Boston Center
08:04AM 40.5989 -72.9211 48° Northeast 571 657 33,200 1,500 Climbing Boston Center
08:05AM 40.7036 -72.7631 49° Northeast 577 664 34,700 1,440 Climbing Boston Center
08:06AM 40.8039 -72.6100 49° Northeast 589 678 36,100 1,380 Climbing Boston Center
08:07AM 40.9000 -72.4372 54° Northeast 589 678 37,600 1,500 Climbing Boston Center
08:08AM 40.9956 -72.2586 55° Northeast 589 678 39,100 1,440 Climbing Boston Center
08:09AM 41.0847 -72.0903 55° Northeast 589 678 40,600 900 Climbing Boston Center
08:10AM 41.1758 -71.9133 56° Northeast 578 665 41,000 180 Climbing Boston Center
08:11AM 41.2728 -71.7275 55° Northeast 584 672 41,000  Level Boston Center
08:12AM 41.3633 -71.5578 55° Northeast 579 666 41,000  Level Boston Center
08:13AM 41.4597 -71.3792 54° Northeast 579 666 41,000  Level Boston Center
08:14AM 41.5536 -71.1972 55° Northeast 585 673 41,000  Level Boston Center
08:15AM 41.6475 -71.0178 55° Northeast 590 679 41,000  Level Boston Center
08:16AM 41.7364 -70.8236 58° Northeast 598 688 41,000  Level Boston Center
08:17AM 41.8397 -70.6261 55° Northeast 599 689 41,000  Level Boston Center
08:18AM 41.9328 -70.4447 55° Northeast 594 684 41,000  Level Boston Center
08:19AM 42.0231 -70.2603 57° Northeast 594 684 41,000  Level Boston Center
08:20AM 42.1156 -70.0975 53° Northeast 600 690 41,000  Level Boston Center
08:21AM 42.2111 -69.8892 58° Northeast 600 690 41,000  Level Boston Center
08:22AM 42.3028 -69.7031 56° Northeast 593 682 41,000  Level Boston Center
08:23AM 42.3919 -69.5164 57° Northeast 588 677 41,000  Level Boston Center
08:24AM 42.4786 -69.3264 58° Northeast 588 677 41,000  Level Boston Center
08:25AM 42.5714 -69.1411 56° Northeast 588 677 41,000  Level Boston Center
08:26AM 42.6597 -68.9558 57° Northeast 588 677 41,000  Level Boston Center
08:27AM 42.7517 -68.7639 57° Northeast 593 682 41,000  Level Boston Center
08:28AM 42.8336 -68.5947 57° Northeast 593 682 41,000  Level Boston Center
08:29AM 42.9208 -68.4050 58° Northeast 593 682 41,000  Level Boston Center
08:30AM 43.0117 -68.2114 57° Northeast 593 682 41,000  Level Boston Center
08:31AM 43.1025 -68.0203 57° Northeast 593 682 41,000  Level Boston Center
08:32AM 43.1906 -67.8231 58° Northeast 599 689 41,000  Level Boston Center
08:33AM 43.2808 -67.6306 57° Northeast 599 689 41,000  Level Boston Center
08:34AM 43.3681 -67.4322 59° Northeast 599 689 41,000  Level Boston Center
08:35AM 43.4575 -67.2389 57° Northeast 604 695 41,000  Level Boston Center
08:36AM 43.5464 -67.0447 58° Northeast 604 695 41,000  Level Boston Center
08:37AM 43.6417 -66.8525 56° Northeast 604 695 41,000  Level Boston Center
08:39AM 43.7667 -66.5667 59° Northeast 600 690 41,000  Level Moncton Center
08:40AM 43.8667 -66.3833 53° Northeast 600 690 41,000  Level Moncton Center
08:41AM 43.9667 -66.2167 50° Northeast 600 690 41,000  Level Moncton Center
08:42AM 44.0500 -66.0333 58° Northeast 600 690 41,000  Level Moncton Center
08:43AM 44.1667 -65.8167 53° Northeast 600 690 41,000  Level Moncton Center
08:44AM 44.2500 -65.6333 58° Northeast 600 690 41,000  Level Moncton Center
08:45AM 44.3500 -65.4333 55° Northeast 600 690 41,000  Level Moncton Center
08:46AM 44.4500 -65.2333 55° Northeast 600 690 41,000  Level Moncton Center
08:47AM 44.5333 -65.0500 57° Northeast 610 702 41,000  Level Moncton Center
08:48AM 44.6333 -64.8667 52° Northeast 610 702 41,000  Level Moncton Center
08:49AM 44.7333 -64.6500 57° Northeast 600 690 41,000  Level Moncton Center
08:50AM 44.8167 -64.4667 57° Northeast 600 690 41,000  Level Moncton Center
08:51AM 44.9167 -64.2500 57° Northeast 600 690 41,000  Level Moncton Center
08:52AM 45.0167 -64.0667 52° Northeast 600 690 41,000  Level Moncton Center
08:53AM 45.1000 -63.8833 57° Northeast 600 690 41,000  Level Moncton Center
08:54AM 45.2000 -63.6833 55° Northeast 600 690 41,000  Level Moncton Center
08:55AM 45.3000 -63.5000 52° Northeast 600 690 41,000  Level Moncton Center
08:56AM 45.4000 -63.2833 57° Northeast 600 690 41,000  Level Moncton Center
08:57AM 45.4833 -63.0833 59° Northeast 600 690 41,000  Level Moncton Center
08:58AM 45.5833 -62.8833 54° Northeast 600 690 41,000  Level Moncton Center
08:59AM 45.6833 -62.6667 56° Northeast 600 690 41,000  Level Moncton Center
09:00AM 45.7667 -62.4833 57° Northeast 600 690 41,000  Level Moncton Center
09:01AM 45.8500 -62.2667 61° Northeast 600 690 41,000  Level Moncton Center
09:02AM 45.9333 -62.0667 59° Northeast 600 690 41,000  Level Moncton Center
09:03AM 46.0333 -61.8667 54° Northeast 600 690 41,000  Level Moncton Center
09:04AM 46.1333 -61.6667 54° Northeast 590 679 41,000  Level Moncton Center
09:05AM 46.2000 -61.4667 64° Northeast 600 690 41,000  Level Moncton Center
09:06AM 46.3000 -61.2500 56° Northeast 600 690 41,000  Level Moncton Center
09:07AM 46.4000 -61.0500 54° Northeast 610 702 41,000  Level Moncton Center
09:08AM 46.4833 -60.8167 63° Northeast 610 702 41,000  Level Moncton Center
09:09AM 46.5667 -60.6167 59° Northeast 610 702 41,000  Level Moncton Center
09:10AM 46.6667 -60.4000 56° Northeast 610 702 41,000  Level Moncton Center
09:11AM 46.7500 -60.2000 59° Northeast 600 690 41,000  Level Moncton Center
09:12AM 46.8333 -60.0000 59° Northeast 600 690 41,000  Level Moncton Center
09:13AM 46.9167 -59.7833 61° Northeast 600 690 41,000  Level Moncton Center
09:14AM 47.0167 -59.5833 54° Northeast 610 702 41,000  Level Moncton Center
09:15AM 47.0833 -59.3500 67° East 610 702 41,000  Level Moncton Center
09:16AM 47.1833 -59.1500 54° Northeast 600 690 41,000  Level Moncton Center
09:17AM 47.2667 -58.9500 58° Northeast 610 702 41,000  Level Moncton Center
09:18AM 47.3333 -58.7167 67° East 600 690 41,000  Level Moncton Center
09:19AM 47.4333 -58.5000 56° Northeast 610 702 41,000  Level Moncton Center
09:20AM 47.5167 -58.3000 58° Northeast 600 690 41,000  Level Moncton Center
09:21AM 47.6000 -58.0833 60° Northeast 600 690 41,000  Level Moncton Center
09:22AM 47.6833 -57.8500 62° Northeast 600 690 41,000  Level Moncton Center
09:23AM 47.7667 -57.6500 58° Northeast 600 690 41,000  Level Moncton Center
09:24AM 47.8333 -57.4333 65° Northeast 600 690 41,000  Level Moncton Center
09:25AM 47.9333 -57.2000 57° Northeast 600 690 41,000  Level Moncton Center
09:26AM 48.0000 -56.9833 65° Northeast 600 690 41,000  Level Moncton Center
09:27AM 48.0667 -56.7500 67° East 600 690 41,000  Level Moncton Center
09:28AM 48.1333 -56.5333 65° Northeast 600 690 41,000  Level Moncton Center
09:29AM 48.2167 -56.3000 62° Northeast 600 690 41,000  Level Moncton Center
09:30AM 48.2833 -56.0833 65° Northeast 590 679 41,000  Level Moncton Center
09:31AM 48.3500 -55.8500 67° East 590 679 41,000  Level Moncton Center
09:32AM 48.4167 -55.6333 65° Northeast 600 690 41,000  Level Moncton Center
09:33AM 48.5000 -55.3833 63° Northeast 600 690 41,000  Level Moncton Center
09:34AM 48.5500 -55.1833 69° East 590 679 41,000  Level Moncton Center
09:35AM 48.6167 -54.9667 65° Northeast 590 679 41,000  Level Moncton Center
09:36AM 48.7000 -54.7167 63° Northeast 590 679 41,000  Level Moncton Center
09:37AM 50.0000 -50.0000 77° East 579 666 41,000  Level ETMS Enhanced Traffic Management System
09:37AM 48.7667 -54.5000 65° Northeast 590 679 41,000  Level Moncton Center
09:38AM 48.8333 -54.2833 77° East 590 679 41,000  Level Moncton Center
09:39AM 48.9000 -54.0667 65° Northeast 590 679 41,000  Level Moncton Center
09:40AM 48.9500 -53.8167 73° East 590 679 41,000  Level Moncton Center
09:41AM 49.0167 -53.6000 65° Northeast 590 679 41,000  Level Moncton Center
09:42AM 49.0833 -53.3833 65° Northeast 590 679 41,000  Level Moncton Center
09:43AM 49.1667 -53.1333 63° Northeast 590 679 41,000  Level Moncton Center
09:44AM 49.2167 -52.9167 70° East 590 679 41,000  Level Moncton Center
09:45AM 49.2833 -52.6667 68° East 580 667 41,000  Level Moncton Center
09:46AM 49.3500 -52.4500 65° Northeast 580 667 41,000  Level Moncton Center
09:47AM 49.4000 -52.2000 73° East 590 679 41,000  Level Moncton Center
09:48AM 49.4667 -51.9667 66° East 590 679 41,000  Level Moncton Center
09:49AM 49.5167 -51.7500 70° East 580 667 41,000  Level Moncton Center
09:50AM 49.5833 -51.5167 66° East 580 667 41,000  Level Moncton Center
09:51AM 49.6333 -51.2667 73° East 590 679 41,000  Level Moncton Center
09:52AM 49.7167 -51.0500 59° Northeast 590 679 41,000  Level Moncton Center
09:53AM 49.7667 -50.8167 72° East 590 679 41,000  Level Moncton Center
09:54AM 49.8333 -50.6000 64° Northeast 590 679 41,000  Level Moncton Center
09:55AM 49.8833 -50.3333 74° East 580 667 41,000  Level Moncton Center
09:56AM 49.9500 -50.1167 64° Northeast 580 667 41,000  Level Moncton Center
09:57AM 49.9833 -49.8833 77° East 580 667 41,000  Level Moncton Center
09:58AM 50.0000 -50.0000 77° East 579 666 41,000  Level ETMS Enhanced Traffic Management System
09:59AM 50.0667 -49.3500 77° East 580 667 41,000  Level Gander Center
10:00AM 50.1000 -49.1333 76° East 580 667 41,000  Level Gander Center
10:01AM 50.1333 -48.8833 78° East 570 656 41,000  Level Gander Center
10:02AM 50.1667 -48.6667 76° East 580 667 41,000  Level Gander Center
10:04AM 50.2195 -48.2699 78° East  Level FlightAware Approximate
10:11AM 50.4191 -46.6590 78° East  Level FlightAware Approximate
10:12AM 50.4458 -46.4278 80° East  Level FlightAware Approximate
10:13AM 50.4720 -46.1964 80° East  Level FlightAware Approximate
10:14AM 50.4978 -45.9647 80° East  Level FlightAware Approximate
10:15AM 50.5231 -45.7327 80° East  Level FlightAware Approximate
10:16AM 50.5480 -45.5005 80° East  Level FlightAware Approximate
10:17AM 50.5723 -45.2680 81° East  Level FlightAware Approximate
10:18AM 50.5963 -45.0353 81° East  Level FlightAware Approximate
10:19AM 50.6197 -44.8024 81° East  Level FlightAware Approximate
10:20AM 50.6427 -44.5692 81° East  Level FlightAware Approximate
10:21AM 50.6653 -44.3358 81° East  Level FlightAware Approximate
10:22AM 50.6873 -44.1022 81° East  Level FlightAware Approximate
10:23AM 50.7089 -43.8684 82° East  Level FlightAware Approximate
10:24AM 50.7302 -43.6343 82° East  Level FlightAware Approximate
10:25AM 50.7511 -43.4001 82° East  Level FlightAware Approximate
10:26AM 50.7715 -43.1657 82° East  Level FlightAware Approximate
10:27AM 50.7915 -42.9311 82° East  Level FlightAware Approximate
10:28AM 50.8110 -42.6963 82° East  Level FlightAware Approximate
10:29AM 50.8300 -42.4613 83° East  Level FlightAware Approximate
10:30AM 50.8485 -42.2261 83° East  Level FlightAware Approximate
10:31AM 50.8666 -41.9907 83° East  Level FlightAware Approximate
10:32AM 50.8842 -41.7552 83° East  Level FlightAware Approximate
10:33AM 50.9013 -41.5195 83° East  Level FlightAware Approximate
10:34AM 50.9179 -41.2836 84° East  Level FlightAware Approximate
10:35AM 50.9341 -41.0475 84° East  Level FlightAware Approximate
10:36AM 50.9498 -40.8113 84° East  Level FlightAware Approximate
10:37AM 50.9650 -40.5749 84° East  Level FlightAware Approximate
10:38AM 50.9798 -40.3383 84° East  Level FlightAware Approximate
10:39AM 50.9940 -40.1017 84° East  Level FlightAware Approximate
10:40AM 51.0057 -39.8646 86° East  Level FlightAware Approximate
10:40AM 51.0000 -40.0000 86° East 552 635 41,000  Level ETMS Enhanced Traffic Management System
10:41AM 51.0154 -39.6272 86° East  Level FlightAware Approximate
10:42AM 51.0245 -39.3897 86° East  Level FlightAware Approximate
10:43AM 51.0332 -39.1521 87° East  Level FlightAware Approximate
10:44AM 51.0414 -38.9145 87° East  Level FlightAware Approximate
10:45AM 51.0491 -38.6767 87° East  Level FlightAware Approximate
10:46AM 51.0732 -37.8078 88° East 552 635 41,000  Level FlightAware Transoceanic
10:47AM 51.0788 -37.5639 88° East 552 635 41,000  Level FlightAware Transoceanic
10:48AM 51.0838 -37.3199 88° East 552 635 41,000  Level FlightAware Transoceanic
10:49AM 51.0884 -37.0758 88° East 552 635 41,000  Level FlightAware Transoceanic
10:50AM 51.0925 -36.8317 89° East 552 635 41,000  Level FlightAware Transoceanic
10:51AM 51.0960 -36.5876 89° East 552 635 41,000  Level FlightAware Transoceanic
10:52AM 51.0991 -36.3434 89° East 552 635 41,000  Level FlightAware Transoceanic
10:53AM 51.1016 -36.0992 89° East 552 635 41,000  Level FlightAware Transoceanic
10:54AM 51.1037 -35.8549 89° East 552 635 41,000  Level FlightAware Transoceanic
10:55AM 51.1052 -35.6107 90° East 552 635 41,000  Level FlightAware Transoceanic
10:56AM 51.1062 -35.3664 90° East 552 635 41,000  Level FlightAware Transoceanic
10:57AM 51.1067 -35.1221 90° East 552 635 41,000  Level FlightAware Transoceanic
10:58AM 51.1067 -34.8779 90° East 552 635 41,000  Level FlightAware Transoceanic
10:59AM 51.1062 -34.6336 90° East 552 635 41,000  Level FlightAware Transoceanic
11:00AM 51.1052 -34.3893 90° East 552 635 41,000  Level FlightAware Transoceanic
11:01AM 51.1037 -34.1451 91° East 552 635 41,000  Level FlightAware Transoceanic
11:02AM 51.1016 -33.9008 91° East 552 635 41,000  Level FlightAware Transoceanic
11:03AM 51.0991 -33.6566 91° East 552 635 41,000  Level FlightAware Transoceanic
11:04AM 51.0960 -33.4124 91° East 552 635 41,000  Level FlightAware Transoceanic
11:05AM 51.0925 -33.1683 91° East 552 635 41,000  Level FlightAware Transoceanic
11:06AM 51.0884 -32.9242 92° East 552 635 41,000  Level FlightAware Transoceanic
11:07AM 51.0838 -32.6801 92° East 552 635 41,000  Level FlightAware Transoceanic
11:08AM 51.0788 -32.4361 92° East 552 635 41,000  Level FlightAware Transoceanic
11:09AM 51.0732 -32.1922 92° East 552 635 41,000  Level FlightAware Transoceanic
11:10AM 51.0671 -31.9483 92° East 552 635 41,000  Level FlightAware Transoceanic
11:11AM 51.0604 -31.7045 93° East 552 635 41,000  Level FlightAware Transoceanic
11:12AM 51.0533 -31.4607 93° East 552 635 41,000  Level FlightAware Transoceanic
11:13AM 51.0457 -31.2170 93° East 552 635 41,000  Level FlightAware Transoceanic
11:14AM 51.0376 -30.9734 93° East 552 635 41,000  Level FlightAware Transoceanic
11:15AM 51.0289 -30.7299 93° East 552 635 41,000  Level FlightAware Transoceanic
11:16AM 51.0198 -30.4865 94° East 552 635 41,000  Level FlightAware Transoceanic
11:17AM 51.0102 -30.2432 94° East 552 635 41,000 840 Level FlightAware Transoceanic
11:18AM 51.0003 -30.0059 94° East  Level FlightAware Approximate
11:19AM 50.9899 -29.7686 94° East  Level FlightAware Approximate
11:20AM 51.0094 -29.7744 86° East  Level FlightAware Approximate
11:20AM 51.0000 -30.0000 86° East 539 620 45,000  Level ETMS Enhanced Traffic Management System
11:21AM 51.0189 -29.5370 86° East  Level FlightAware Approximate
11:22AM 51.0279 -29.2994 86° East  Level FlightAware Approximate
11:23AM 51.0364 -29.0618 87° East  Level FlightAware Approximate
11:24AM 51.0444 -28.8241 87° East  Level FlightAware Approximate
11:25AM 51.0519 -28.5863 87° East  Level FlightAware Approximate
11:26AM 51.0658 -28.0982 88° East 539 620 45,000  Level FlightAware Transoceanic
11:27AM 51.0719 -27.8601 88° East 539 620 45,000  Level FlightAware Transoceanic
11:28AM 51.0775 -27.6220 88° East 539 620 45,000  Level FlightAware Transoceanic
11:29AM 51.0826 -27.3838 88° East 539 620 45,000  Level FlightAware Transoceanic
11:30AM 51.0872 -27.1455 88° East 539 620 45,000  Level FlightAware Transoceanic
11:31AM 51.0913 -26.9073 89° East 539 620 45,000  Level FlightAware Transoceanic
11:32AM 51.0949 -26.6689 89° East 539 620 45,000  Level FlightAware Transoceanic
11:33AM 51.0981 -26.4306 89° East 539 620 45,000  Level FlightAware Transoceanic
11:34AM 51.1007 -26.1922 89° East 539 620 45,000  Level FlightAware Transoceanic
11:35AM 51.1029 -25.9538 89° East 539 620 45,000  Level FlightAware Transoceanic
11:36AM 51.1046 -25.7154 89° East 539 620 45,000  Level FlightAware Transoceanic
11:37AM 51.1058 -25.4769 90° East 539 620 45,000  Level FlightAware Transoceanic
11:38AM 51.1065 -25.2385 90° East 539 620 45,000  Level FlightAware Transoceanic
11:39AM 51.1068 -25.0000 90° East 539 620 45,000  Level FlightAware Transoceanic
11:40AM 51.1065 -24.7615 90° East 539 620 45,000  Level FlightAware Transoceanic
11:41AM 51.1058 -24.5231 90° East 539 620 45,000  Level FlightAware Transoceanic
11:42AM 51.1046 -24.2846 91° East 539 620 45,000  Level FlightAware Transoceanic
11:43AM 51.1029 -24.0462 91° East 539 620 45,000  Level FlightAware Transoceanic
11:44AM 51.1007 -23.8078 91° East 539 620 45,000  Level FlightAware Transoceanic
11:45AM 51.0981 -23.5694 91° East 539 620 45,000  Level FlightAware Transoceanic
11:46AM 51.0949 -23.3311 91° East 539 620 45,000  Level FlightAware Transoceanic
11:47AM 51.0913 -23.0927 91° East 539 620 45,000  Level FlightAware Transoceanic
11:48AM 51.0872 -22.8545 92° East 539 620 45,000  Level FlightAware Transoceanic
11:49AM 51.0826 -22.6162 92° East 539 620 45,000  Level FlightAware Transoceanic
11:50AM 51.0775 -22.3780 92° East 539 620 45,000  Level FlightAware Transoceanic
11:51AM 51.0719 -22.1399 92° East 539 620 45,000  Level FlightAware Transoceanic
11:52AM 51.0658 -21.9018 92° East 539 620 45,000  Level FlightAware Transoceanic
11:53AM 51.0593 -21.6638 93° East 539 620 45,000  Level FlightAware Transoceanic
11:54AM 51.0523 -21.4259 93° East 539 620 45,000  Level FlightAware Transoceanic
11:55AM 51.0448 -21.1880 93° East 539 620 45,000  Level FlightAware Transoceanic
11:56AM 51.0368 -20.9502 93° East 539 620 45,000  Level FlightAware Transoceanic
11:57AM 51.0283 -20.7125 93° East 539 620 45,000  Level FlightAware Transoceanic
11:58AM 51.0193 -20.4749 94° East 539 620 45,000  Level FlightAware Transoceanic
11:59AM 51.0099 -20.2374 94° East 539 620 45,000  Level FlightAware Transoceanic
12:00PM 51.0000 -20.0001 94° East  Level FlightAware Approximate
12:01PM 50.9998 -19.7623 90° East  Level FlightAware Approximate
12:02PM 50.9925 -19.7626 93° East  Level FlightAware Approximate
12:03PM 50.9844 -19.5252 93° East  Level FlightAware Approximate
12:04PM 50.9759 -19.2879 93° East  Level FlightAware Approximate
12:05PM 50.9669 -19.0506 93° East  Level FlightAware Approximate
12:06PM 50.9574 -18.8134 94° East  Level FlightAware Approximate
12:07PM 50.9475 -18.5764 94° East  Level FlightAware Approximate
12:08PM 50.9370 -18.3394 94° East  Level FlightAware Approximate
12:09PM 50.9261 -18.1026 94° East  Level FlightAware Approximate
12:10PM 50.9147 -17.8658 94° East  Level FlightAware Approximate
12:11PM 50.9029 -17.6292 94° East  Level FlightAware Approximate
12:12PM 50.8905 -17.3927 95° East  Level FlightAware Approximate
12:13PM 50.8777 -17.1563 95° East  Level FlightAware Approximate
12:14PM 50.8644 -16.9201 95° East  Level FlightAware Approximate
12:15PM 50.8506 -16.6840 95° East  Level FlightAware Approximate
12:16PM 50.8363 -16.4480 95° East  Level FlightAware Approximate
12:17PM 50.8216 -16.2122 96° East  Level FlightAware Approximate
12:18PM 50.8064 -15.9766 96° East  Level FlightAware Approximate
12:19PM 50.7907 -15.7411 96° East  Level FlightAware Approximate
12:20PM 50.7746 -15.5057 96° East  Level FlightAware Approximate
12:21PM 50.7579 -15.2705 96° East  Level FlightAware Approximate
12:22PM 50.7408 -15.0355 96° East  Level FlightAware Approximate
12:23PM 50.7233 -14.8007 97° East  Level FlightAware Approximate
12:24PM 50.7052 -14.5660 97° East  Level FlightAware Approximate
12:25PM 50.6867 -14.3316 97° East  Level FlightAware Approximate
12:26PM 50.6677 -14.0973 97° East  Level FlightAware Approximate
12:27PM 50.6483 -13.8632 97° East  Level FlightAware Approximate
12:28PM 50.6283 -13.6293 98° East  Level FlightAware Approximate
12:29PM 50.6079 -13.3956 98° East  Level FlightAware Approximate
12:30PM 50.5871 -13.1621 98° East  Level FlightAware Approximate
12:31PM 50.5658 -12.9288 98° East  Level FlightAware Approximate
12:32PM 50.5440 -12.6957 98° East  Level FlightAware Approximate
12:33PM 50.5217 -12.4629 98° East  Level FlightAware Approximate
12:34PM 50.4990 -12.2303 99° East  Level FlightAware Approximate
12:35PM 50.4758 -11.9978 99° East  Level FlightAware Approximate
12:36PM 50.4522 -11.7657 99° East  Level FlightAware Approximate
12:37PM 50.4281 -11.5337 99° East  Level FlightAware Approximate
12:38PM 50.4035 -11.3020 99° East  Level FlightAware Approximate
12:39PM 50.3784 -11.0706 100° East  Level FlightAware Approximate
12:40PM 50.3530 -10.8393 100° East  Level FlightAware Approximate
12:41PM 50.3270 -10.6084 100° East  Level FlightAware Approximate
12:42PM 50.3006 -10.3777 100° East  Level FlightAware Approximate
12:43PM 50.2738 -10.1472 100° East  Level FlightAware Approximate
12:44PM 50.2465 -9.9170 100° East  Level FlightAware Approximate
12:45PM 50.2187 -9.6871 101° East  Level FlightAware Approximate
12:46PM 50.1905 -9.4575 101° East  Level FlightAware Approximate
12:47PM 50.1618 -9.2281 101° East  Level FlightAware Approximate
12:48PM 50.1327 -8.9990 101° East  Level FlightAware Approximate
12:49PM 50.1031 -8.7702 101° East  Level FlightAware Approximate
12:49PM 50.3708 -8.9909 101° East 488 562 45,000  Level FlightAware UK
12:50PM 50.3542 -8.8791 103° East 488 562 45,000  Level FlightAware UK
12:50PM 50.3375 -8.7673 103° East 490 564 45,000  Level FlightAware UK
12:51PM 50.3221 -8.6560 102° East 488 562 45,000  Level FlightAware UK
12:51PM 50.3054 -8.5448 103° East 488 562 45,000  Level FlightAware UK
12:52PM 50.2884 -8.4336 103° East 488 562 45,000  Level FlightAware UK
12:52PM 50.2720 -8.3230 103° East 486 559 45,000  Level FlightAware UK
12:53PM 50.2551 -8.2120 103° East 488 562 45,000  Level FlightAware UK
12:53PM 50.2382 -8.1003 103° East 488 562 45,000  Level FlightAware UK
12:54PM 50.2215 -7.9892 103° East 490 564 45,000  Level FlightAware UK
12:54PM 50.2047 -7.8783 103° East 490 564 45,000  Level FlightAware UK
12:55PM 50.1869 -7.7675 104° East 488 562 45,000  Level FlightAware UK
12:55PM 50.1691 -7.6568 104° East 488 562 45,000  Level FlightAware UK
12:56PM 50.1514 -7.5468 104° East 488 562 45,000  Level FlightAware UK
12:56PM 50.1335 -7.4372 104° East 488 562 45,000  Level FlightAware UK
12:57PM 50.1157 -7.3280 104° East 488 562 45,000  Level FlightAware UK
12:57PM 50.0980 -7.2187 104° East 488 562 45,000  Level FlightAware UK
12:58PM 50.0807 -7.1098 104° East 488 562 45,000  Level FlightAware UK
12:58PM 50.0630 -7.0008 104° East 490 564 45,000  Level FlightAware UK
12:59PM 50.0417 -6.8699 104° East 488 562 45,000  Level FlightAware UK
12:59PM 50.0236 -6.7614 104° East 488 562 45,000  Level FlightAware UK
01:00PM 50.0057 -6.6530 104° East 488 562 45,000  Level FlightAware UK
01:00PM 49.9875 -6.5447 105° East 488 562 45,000  Level FlightAware UK
01:01PM 49.9691 -6.4364 105° East 488 562 45,000  Level FlightAware UK
01:01PM 49.9506 -6.3279 105° East 490 564 45,000  Level FlightAware UK
01:02PM 49.9319 -6.2195 105° East 490 564 45,000  Level FlightAware UK
01:02PM 49.9137 -6.1111 105° East 490 564 45,000  Level FlightAware UK
01:03PM 49.8949 -6.0030 105° East 488 562 45,000  Level FlightAware UK
01:03PM 49.8720 -5.8739 105° East 486 559 45,000  Level FlightAware UK
01:04PM 49.8530 -5.7660 105° East 486 559 45,000  Level FlightAware UK
01:04PM 49.8342 -5.6587 105° East 488 562 45,000  Level FlightAware UK
01:05PM 49.8153 -5.5512 105° East 488 562 45,000  Level FlightAware UK
01:05PM 49.7962 -5.4435 105° East 488 562 45,000  Level FlightAware UK
01:06PM 49.7767 -5.3354 106° East 488 562 45,000  Level FlightAware UK
01:06PM 49.7571 -5.2271 106° East 488 562 45,000  Level FlightAware UK
01:07PM 49.7374 -5.1187 106° East 488 562 45,000  Level FlightAware UK
01:07PM 49.7177 -5.0105 106° East 488 562 45,000  Level FlightAware UK
01:08PM 49.7018 -4.9007 103° East 488 562 45,000  Level FlightAware UK
01:08PM 49.6900 -4.7896 99° East 488 562 45,000  Level FlightAware UK
01:09PM 49.6772 -4.6784 100° East 488 562 45,000  Level FlightAware UK
01:09PM 49.6643 -4.5680 100° East 488 562 45,000  Level FlightAware UK
01:10PM 49.6513 -4.4577 100° East 488 562 45,000  Level FlightAware UK
01:10PM 49.6385 -4.3472 100° East 486 559 45,000  Level FlightAware UK
01:11PM 49.6259 -4.2364 100° East 488 562 45,000  Level FlightAware UK
01:11PM 49.6072 -4.0817 100° East 488 562 45,000  Level FlightAware UK
01:12PM 49.5909 -3.9494 101° East 488 562 45,000  Level FlightAware UK
01:13PM 49.5772 -3.8394 101° East 486 559 45,000  Level FlightAware UK
01:13PM 49.5634 -3.7290 101° East 486 559 45,000  Level FlightAware UK
01:14PM 49.5497 -3.6192 101° East 486 559 45,000  Level FlightAware UK
01:14PM 49.5245 -3.4204 101° East 490 564 45,000  Level FlightAware UK
01:15PM 49.5102 -3.3098 101° East 488 562 45,000  Level FlightAware UK
01:15PM 49.4957 -3.1987 101° East 488 562 45,000  Level FlightAware UK
01:16PM 49.4813 -3.0887 101° East 486 559 45,000  Level FlightAware UK
01:17PM 49.4639 -2.9561 101° East 488 562 45,000  Level FlightAware UK
01:17PM 49.4431 -2.8019 102° East 488 562 45,000  Level FlightAware UK
01:18PM 49.4194 -2.6267 102° East 486 559 45,000  Level FlightAware UK
01:19PM 49.4047 -2.5164 102° East 486 559 45,000  Level FlightAware UK
01:19PM 49.3869 -2.3847 102° East 486 559 45,000  Level FlightAware UK
01:20PM 49.3715 -2.2744 102° East 490 564 45,000  Level FlightAware UK
01:20PM 49.3495 -2.1184 102° East 486 559 45,000  Level FlightAware UK
01:21PM 49.3272 -1.9611 102° East 488 562 45,000  Level FlightAware UK
01:22PM 49.3114 -1.8496 102° East 490 564 45,000  Level FlightAware UK
01:22PM 49.2952 -1.7372 102° East 490 564 45,000  Level FlightAware UK
01:23PM 49.2728 -1.5824 102° East 490 564 45,000  Level FlightAware UK
01:23PM 49.2570 -1.4717 102° East 488 562 45,000  Level FlightAware UK
01:24PM 49.2406 -1.3614 103° East 486 559 45,000  Level FlightAware UK
01:25PM 49.2143 -1.1843 103° East 490 564 45,000  Level FlightAware UK
01:25PM 49.1912 -1.0302 103° East 488 562 45,000  Level FlightAware UK
01:26PM 49.1746 -0.9203 103° East 488 562 45,000  Level FlightAware UK
01:26PM 49.1543 -0.7882 103° East 486 559 45,000  Level FlightAware UK
01:27PM 49.1373 -0.6781 103° East 488 562 45,000  Level FlightAware UK
01:27PM 49.1204 -0.5685 103° East 488 562 45,000  Level FlightAware UK
01:28PM 49.0896 -0.3712 103° East 490 564 45,000  Level FlightAware UK
01:29PM 49.0652 -0.2168 104° East 488 562 45,000  Level FlightAware UK
01:30PM 49.0479 -0.1079 104° East 488 562 45,000  Level FlightAware UK
01:30PM 49.0306 0.0016 104° East 488 562 45,000  Level FlightAware UK
01:31PM 49.0094 0.1319 104° East 488 562 45,000  Level FlightAware UK
01:31PM 48.9917 0.2405 104° East 490 564 45,000  Level FlightAware UK
01:32PM 48.9703 0.3715 104° East 490 564 45,000  Level FlightAware UK
01:32PM 48.9530 0.4802 104° East 490 564 45,000  Level FlightAware UK
01:33PM 48.9401 0.5904 100° East 488 562 45,000  Level FlightAware UK
01:33PM 48.9231 0.7439 99° East 490 564 45,000  Level FlightAware UK
01:34PM 48.9034 0.9195 100° East 488 562 45,000  Level FlightAware UK
01:35PM 48.8908 1.0283 100° East 488 562 45,000  Level FlightAware UK
01:35PM 48.8782 1.1369 100° East 490 564 45,000  Level FlightAware UK
01:36PM 48.8656 1.2462 100° East 488 562 45,000  Level FlightAware UK
01:37PM 48.8398 1.4636 100° East 490 564 45,000  Level FlightAware UK
01:37PM 48.8240 1.5942 100° East 490 564 45,000  Level FlightAware UK
01:38PM 48.8108 1.7038 100° East 490 564 45,000  Level FlightAware UK
01:38PM 48.7977 1.8127 100° East 488 562 45,000  Level FlightAware UK
01:39PM 48.7789 1.9650 101° East 488 562 45,000  Level FlightAware UK
01:40PM 48.7653 2.0747 101° East 490 564 45,000  Level FlightAware UK
01:40PM 48.7516 2.1835 101° East 490 564 45,000  Level FlightAware UK
01:41PM 48.7380 2.2923 101° East 490 564 45,000  Level FlightAware UK
01:41PM 48.7212 2.4233 101° East 1 1 45,000  Level FlightAware UK
01:43PM 48.6068 2.6846 123° Southeast  Level Estimated
01:50PM 48.0188 3.9885 124° Southeast  Level Estimated
01:51PM 47.9336 4.1723 125° Southeast  Level Estimated
01:52PM 47.8482 4.3556 125° Southeast  Level Estimated
01:53PM 47.7624 4.5382 125° Southeast  Level Estimated
01:54PM 47.6763 4.7202 125° Southeast  Level Estimated
01:55PM 47.5900 4.9017 125° Southeast  Level Estimated
01:56PM 47.5034 5.0825 125° Southeast  Level Estimated
01:57PM 47.4165 5.2627 125° Southeast  Level Estimated
01:58PM 47.3293 5.4423 126° Southeast  Level Estimated
01:59PM 47.2418 5.6214 126° Southeast  Level Estimated
02:00PM 47.1540 5.7998 126° Southeast  Level Estimated
02:01PM 47.0660 5.9777 126° Southeast  Level Estimated
02:02PM 46.9777 6.1550 126° Southeast  Level Estimated
02:03PM 46.8891 6.3317 126° Southeast  Level Estimated
02:04PM 46.8003 6.5078 126° Southeast  Level Estimated
02:05PM 46.7112 6.6833 126° Southeast  Level Estimated
02:06PM 46.6218 6.8582 127° Southeast  Level Estimated
02:07PM 46.5321 7.0326 127° Southeast  Level Estimated
02:08PM 46.4422 7.2064 127° Southeast  Level Estimated
02:09PM 46.3520 7.3796 127° Southeast  Level Estimated
02:10PM 46.2616 7.5522 127° Southeast  Level Estimated
02:11PM 46.1709 7.7243 127° Southeast  Level Estimated
02:12PM 46.0799 7.8958 127° Southeast  Level Estimated
02:13PM 45.9887 8.0668 127° Southeast  Level Estimated
02:14PM 45.8973 8.2372 128° Southeast  Level Estimated
02:15PM 45.8056 8.4070 128° Southeast  Level Estimated
02:16PM 45.7136 8.5762 128° Southeast  Level Estimated
02:17PM 45.6306 8.7281 128° Southeast  Level Estimated
02:18PM 45.6306 8.7281 170° South  Level Estimated
02:19PM 45.6306 8.7281 170° South  Level Estimated
02:20PM 45.6306 8.7281 170° South  Level Estimated
02:21PM 45.6306 8.7281 170° South  Level Estimated
02:22PM 45.6306 8.7281 170° South  Level Estimated
02:23PM 45.6306 8.7281 170° South  Level Estimated
02:24PM 45.6306 8.7281 170° South  Level Estimated
02:25PM 45.6306 8.7281 170° South  Level Estimated
02:26PM 45.6306 8.7281 170° South  Level Estimated
02:27PM 45.6306 8.7281 170° South  Level Estimated
02:28PM 45.6306 8.7281 170° South  Level Estimated
02:29PM 45.6306 8.7281 170° South  Level Estimated
02:30PM 45.6306 8.7281 170° South  Level Estimated
02:31PM 45.6306 8.7281 170° South  Level Estimated
02:32PM 45.6306 8.7281 170° South  Level Estimated
02:33PM 45.6306 8.7281 170° South  Level Estimated
02:34PM 45.6306 8.7281 170° South  Level Estimated
02:35PM 45.6306 8.7281 170° South  Level Estimated
02:36PM 45.6306 8.7281 170° South  Level Estimated
02:37PM 45.6306 8.7281 170° South  Level Estimated
02:38PM 45.6306 8.7281 170° South  Level Estimated
02:39PM 45.6306 8.7281 170° South  Level Estimated
02:40PM 45.6306 8.7281 170° South  Level Estimated
02:41PM 45.6306 8.7281 170° South  Level Estimated
02:42PM 45.6306 8.7281 170° South  Level Estimated